createdAt,value
2019-03-19T00:03:38.322Z,97326.06
2019-03-19T00:06:26.090Z,97323.72
2019-03-19T00:08:54.786Z,97326.28
2019-03-19T00:11:42.648Z,97332.21
2019-03-19T00:14:11.272Z,97328.48
2019-03-19T00:16:59.180Z,97327.52
2019-03-19T00:19:47.072Z,97331.64
2019-03-19T00:22:34.883Z,97329.81
2019-03-19T00:25:30.041Z,97330.20
2019-03-19T00:28:12.288Z,97332.06
2019-03-19T00:31:00.160Z,97328.27
2019-03-19T00:33:48.043Z,97319.75
2019-03-19T00:36:35.830Z,97316.81
2019-03-19T00:39:44.297Z,97325.17
2019-03-19T00:42:32.081Z,97329.22
2019-03-19T00:45:19.959Z,97325.73
2019-03-19T00:48:07.869Z,97330.77
2019-03-19T00:50:55.679Z,97326.44
2019-03-19T00:53:24.301Z,97323.54
2019-03-19T00:56:12.068Z,97329.70
2019-03-19T00:58:59.947Z,97330.51
2019-03-19T01:01:47.877Z,97330.17
2019-03-19T01:04:35.684Z,97330.75
2019-03-19T01:07:04.333Z,97328.09
2019-03-19T01:09:52.294Z,97333.20
2019-03-19T01:12:40.060Z,97334.58
2019-03-19T01:15:48.570Z,97330.92
2019-03-19T01:18:36.517Z,97324.20
2019-03-19T01:21:05.177Z,97320.55
2019-03-19T01:23:53.072Z,97327.93
2019-03-19T01:26:40.900Z,97327.22
2019-03-19T01:32:21.973Z,97331.00
2019-03-19T01:35:09.912Z,97334.63
2019-03-19T01:37:57.805Z,97330.88
2019-03-19T01:40:26.516Z,97332.70
2019-03-19T01:42:55.226Z,97338.45
2019-03-19T01:45:23.910Z,97333.67
2019-03-19T01:48:11.749Z,97335.36
2019-03-19T01:50:59.623Z,97333.23
2019-03-19T01:53:47.519Z,97336.04
2019-03-19T01:56:35.437Z,97341.84
2019-03-19T01:59:23.389Z,97340.84
2019-03-19T02:02:11.285Z,97331.55
2019-03-19T02:04:39.959Z,97334.62
2019-03-19T02:07:27.950Z,97340.22
2019-03-19T02:10:15.779Z,97347.67
2019-03-19T02:13:03.669Z,97342.48
2019-03-19T02:15:51.488Z,97339.39
2019-03-19T02:18:39.241Z,97342.95
2019-03-19T02:21:27.152Z,97339.41
2019-03-19T02:26:30.384Z,97347.45
2019-03-19T02:29:18.224Z,97352.14
2019-03-19T02:32:06.108Z,97351.75
2019-03-19T02:34:53.881Z,97348.86
2019-03-19T02:37:22.592Z,97346.95
2019-03-19T02:40:10.515Z,97349.07
2019-03-19T02:42:58.439Z,97344.77
2019-03-19T02:45:38.987Z,97345.71
2019-03-19T02:48:07.645Z,97353.73
2019-03-19T02:50:55.530Z,97354.73
2019-03-19T02:53:43.378Z,97353.05
2019-03-19T02:56:33.467Z,97351.45
2019-03-19T03:02:08.513Z,97359.38
2019-03-19T03:04:56.394Z,97363.06
2019-03-19T03:07:25.102Z,97359.74
2019-03-19T03:10:13.020Z,97354.55
2019-03-19T03:12:41.726Z,97353.33
2019-03-19T03:15:50.215Z,97353.33
2019-03-19T03:18:38.090Z,97357.17
2019-03-19T03:21:06.711Z,97355.73
2019-03-19T03:23:54.553Z,97354.30
2019-03-19T03:26:48.303Z,97353.21
2019-03-19T03:29:32.097Z,97360.66
2019-03-19T03:32:02.504Z,97357.40
2019-03-19T03:34:50.376Z,97367.20
2019-03-19T03:37:38.216Z,97369.39
2019-03-19T03:40:26.209Z,97373.79
2019-03-19T03:42:54.949Z,97381.48
2019-03-19T03:45:23.610Z,97382.83
2019-03-19T03:48:11.440Z,97379.28
2019-03-19T03:50:40.023Z,97379.49
2019-03-19T03:53:27.913Z,97386.30
2019-03-19T03:56:15.777Z,97383.34
2019-03-19T03:58:44.453Z,97384.76
2019-03-19T04:01:32.382Z,97394.64
2019-03-19T04:04:01.028Z,97405.89
2019-03-19T04:06:48.982Z,97400.75
2019-03-19T04:09:36.699Z,97402.94
2019-03-19T04:12:24.582Z,97400.15
2019-03-19T04:14:53.341Z,97398.84
2019-03-19T04:17:22.007Z,97403.88
2019-03-19T04:19:50.618Z,97403.45
2019-03-19T04:22:19.312Z,97411.34
2019-03-19T04:25:07.943Z,97412.91
2019-03-19T04:27:39.955Z,97415.09
2019-03-19T04:30:26.325Z,97418.89
2019-03-19T04:33:14.134Z,97427.61
2019-03-19T04:36:02.014Z,97424.91
2019-03-19T04:38:49.925Z,97434.08
2019-03-19T04:41:37.823Z,97428.59
2019-03-19T04:44:06.481Z,97430.06
2019-03-19T04:49:29.105Z,97431.88
2019-03-19T04:52:16.997Z,97432.25
2019-03-19T04:55:04.798Z,97427.69
2019-03-19T04:57:52.661Z,97435.44
2019-03-19T05:01:01.128Z,97437.75
2019-03-19T05:03:29.735Z,97439.23
2019-03-19T05:05:59.647Z,97440.67
2019-03-19T05:08:28.772Z,97443.03
2019-03-19T05:10:57.365Z,97443.97
2019-03-19T05:13:45.237Z,97449.04
2019-03-19T05:16:33.064Z,97454.91
2019-03-19T05:19:20.965Z,97463.69
2019-03-19T05:21:49.636Z,97455.06
2019-03-19T05:24:37.415Z,97461.95
2019-03-19T05:27:06.034Z,97466.27
2019-03-19T05:29:54.119Z,97458.91
2019-03-19T05:32:41.922Z,97459.69
2019-03-19T05:35:10.683Z,97468.18
2019-03-19T05:37:39.358Z,97461.97
2019-03-19T05:40:27.333Z,97461.97
2019-03-19T05:42:55.979Z,97476.45
2019-03-19T05:45:24.596Z,97471.39
2019-03-19T05:48:12.562Z,97477.42
2019-03-19T05:51:00.475Z,97482.33
2019-03-19T05:54:08.962Z,97489.44
2019-03-19T05:57:17.443Z,97489.23
2019-03-19T06:00:26.097Z,97494.13
2019-03-19T06:03:14.082Z,97490.33
2019-03-19T06:05:42.739Z,97492.78
2019-03-19T06:08:11.409Z,97495.77
2019-03-19T06:10:59.311Z,97493.36
2019-03-19T06:13:47.126Z,97504.52
2019-03-19T06:16:15.830Z,97502.31
2019-03-19T06:18:44.500Z,97508.14
2019-03-19T06:21:13.213Z,97518.29
2019-03-19T06:23:41.937Z,97515.58
2019-03-19T06:26:29.827Z,97517.11
2019-03-19T06:29:17.777Z,97522.25
2019-03-19T06:32:05.655Z,97520.80
2019-03-19T06:34:34.310Z,97521.14
2019-03-19T06:37:03.010Z,97525.36
2019-03-19T06:39:31.706Z,97531.54
2019-03-19T06:42:00.372Z,97537.59
2019-03-19T06:44:48.200Z,97538.09
2019-03-19T06:47:36.066Z,97530.05
2019-03-19T06:50:45.618Z,97529.83
2019-03-19T06:53:15.081Z,97529.08
2019-03-19T06:55:43.776Z,97540.87
2019-03-19T06:58:12.423Z,97545.38
2019-03-19T07:01:00.303Z,97543.47
2019-03-19T07:03:28.979Z,97546.22
2019-03-19T07:05:57.634Z,97541.73
2019-03-19T07:08:45.529Z,97541.91
2019-03-19T07:11:33.359Z,97546.42
2019-03-19T07:14:02.053Z,97548.48
2019-03-19T07:16:30.758Z,97548.13
2019-03-19T07:19:18.650Z,97540.59
2019-03-19T07:22:06.510Z,97542.14
2019-03-19T07:24:54.297Z,97540.73
2019-03-19T07:27:42.151Z,97551.48
2019-03-19T07:30:30.191Z,97558.73
2019-03-19T07:33:18.029Z,97558.05
2019-03-19T07:36:06.400Z,97563.59
2019-03-19T07:38:36.209Z,97568.11
2019-03-19T07:41:04.842Z,97576.14
2019-03-19T07:43:33.539Z,97570.39
2019-03-19T07:46:21.426Z,97568.20
2019-03-19T07:49:09.271Z,97571.42
2019-03-19T07:51:57.021Z,97570.55
2019-03-19T07:54:25.671Z,97571.50
2019-03-19T07:56:54.327Z,97578.04
2019-03-19T07:59:22.943Z,97574.02
2019-03-19T08:01:51.595Z,97571.73
2019-03-19T08:04:20.298Z,97587.69
2019-03-19T08:07:08.079Z,97586.36
2019-03-19T08:09:55.956Z,97591.55
2019-03-19T08:12:24.590Z,97589.48
2019-03-19T08:14:53.230Z,97592.25
2019-03-19T08:17:21.842Z,97592.65
2019-03-19T08:19:50.505Z,97589.66
2019-03-19T08:22:19.193Z,97595.39
2019-03-19T08:25:08.747Z,97600.86
2019-03-19T08:27:37.337Z,97613.41
2019-03-19T08:30:45.801Z,97607.48
2019-03-19T08:33:33.777Z,97603.13
2019-03-19T08:36:09.347Z,97616.25
2019-03-19T08:38:32.834Z,97627.18
2019-03-19T08:41:01.551Z,97624.77
2019-03-19T08:43:30.186Z,97621.92
2019-03-19T08:45:58.883Z,97628.72
2019-03-19T08:48:27.533Z,97631.05
2019-03-19T08:51:15.350Z,97624.59
2019-03-19T08:54:03.177Z,97621.51
2019-03-19T08:56:51.063Z,97621.59
2019-03-19T08:59:19.670Z,97630.23
2019-03-19T09:01:48.368Z,97629.38
2019-03-19T09:04:17.019Z,97630.23
2019-03-19T09:06:45.627Z,97631.62
2019-03-19T09:12:21.072Z,97631.53
2019-03-19T09:14:49.720Z,97638.06
2019-03-19T09:17:18.379Z,97637.13
2019-03-19T09:19:47.075Z,97634.02
2019-03-19T09:22:34.820Z,97627.45
2019-03-19T09:25:22.707Z,97631.09
2019-03-19T09:28:10.624Z,97635.78
2019-03-19T09:30:58.432Z,97639.65
2019-03-19T09:33:46.282Z,97639.23
2019-03-19T09:36:34.240Z,97635.98
2019-03-19T09:39:02.920Z,97635.64
2019-03-19T09:41:50.817Z,97636.24
2019-03-19T09:44:38.686Z,97635.27
2019-03-19T09:47:26.673Z,97630.83
2019-03-19T09:50:14.618Z,97634.77
2019-03-19T09:53:23.047Z,97632.45
2019-03-19T09:56:10.927Z,97637.11
2019-03-19T09:58:39.510Z,97632.99
2019-03-19T10:01:27.443Z,97628.02
2019-03-19T10:04:15.264Z,97630.48
2019-03-19T10:06:43.893Z,97631.41
2019-03-19T10:09:31.686Z,97626.06
2019-03-19T10:12:19.547Z,97624.13
2019-03-19T10:15:07.413Z,97624.66
2019-03-19T10:17:55.252Z,97629.34
2019-03-19T10:20:43.165Z,97633.91
2019-03-19T10:23:30.968Z,97633.03
2019-03-19T10:26:18.758Z,97634.55
2019-03-19T10:29:06.620Z,97638.06
2019-03-19T10:31:35.279Z,97642.97
2019-03-19T10:34:03.957Z,97645.66
2019-03-19T10:36:51.850Z,97636.95
2019-03-19T10:39:39.765Z,97645.73
2019-03-19T10:42:08.394Z,97648.50
2019-03-19T10:44:56.255Z,97650.78
2019-03-19T10:47:44.217Z,97655.46
2019-03-19T10:50:32.139Z,97653.03
2019-03-19T10:53:20.004Z,97655.74
2019-03-19T10:56:07.878Z,97650.05
2019-03-19T10:58:55.580Z,97653.33
2019-03-19T11:01:43.523Z,97652.75
2019-03-19T11:04:31.559Z,97661.52
2019-03-19T11:07:19.402Z,97662.63
2019-03-19T11:10:07.276Z,97662.29
2019-03-19T11:12:55.224Z,97652.32
2019-03-19T11:16:03.725Z,97656.41
2019-03-19T11:18:51.564Z,97659.05
2019-03-19T11:21:39.375Z,97657.46
2019-03-19T11:24:27.303Z,97648.56
2019-03-19T11:27:15.175Z,97647.38
2019-03-19T11:30:03.088Z,97647.45
2019-03-19T11:32:31.796Z,97642.97
2019-03-19T11:35:19.731Z,97642.16
2019-03-19T11:37:48.392Z,97645.02
2019-03-19T11:40:36.357Z,97643.56
2019-03-19T11:43:44.774Z,97646.61
2019-03-19T11:46:32.662Z,97648.44
2019-03-19T11:49:20.471Z,97649.08
2019-03-19T11:52:08.374Z,97641.14
2019-03-19T11:54:56.318Z,97649.89
2019-03-19T11:57:44.073Z,97650.55
2019-03-19T12:03:15.880Z,97649.94
2019-03-19T12:05:41.430Z,97654.13
2019-03-19T12:08:29.285Z,97650.55
2019-03-19T12:11:17.220Z,97646.27
2019-03-19T12:14:05.011Z,97642.84
2019-03-19T12:16:33.691Z,97638.80
2019-03-19T12:19:21.609Z,97642.27
2019-03-19T12:22:09.551Z,97641.97
2019-03-19T12:24:57.444Z,97646.91
2019-03-19T12:27:26.027Z,97637.86
2019-03-19T12:30:21.711Z,97636.09
2019-03-19T12:32:44.346Z,97641.62
2019-03-19T12:35:52.819Z,97641.06
2019-03-19T12:38:40.684Z,97642.83
2019-03-19T12:41:28.586Z,97638.44
2019-03-19T12:44:16.513Z,97640.38
2019-03-19T12:47:04.364Z,97639.39
2019-03-19T12:49:52.317Z,97645.57
2019-03-19T12:52:40.100Z,97642.09
2019-03-19T12:55:48.536Z,97644.53
2019-03-19T12:58:36.425Z,97647.23
2019-03-19T13:01:24.427Z,97649.53
2019-03-19T13:04:14.018Z,97640.55
2019-03-19T13:07:01.869Z,97633.38
2019-03-19T13:09:49.759Z,97631.36
2019-03-19T13:12:37.580Z,97630.84
2019-03-19T13:15:46.070Z,97620.36
2019-03-19T13:18:33.906Z,97623.06
2019-03-19T13:21:21.652Z,97625.75
2019-03-19T13:24:09.598Z,97631.13
2019-03-19T13:26:57.511Z,97628.43
2019-03-19T13:29:45.231Z,97621.84
2019-03-19T13:32:33.129Z,97624.66
2019-03-19T13:35:21.066Z,97623.58
2019-03-19T13:37:49.739Z,97632.41
2019-03-19T13:40:58.230Z,97630.39
2019-03-19T13:43:26.838Z,97627.98
2019-03-19T13:46:14.782Z,97621.53
2019-03-19T13:49:02.622Z,97618.73
2019-03-19T13:51:50.479Z,97619.47
2019-03-19T13:54:38.282Z,97632.34
2019-03-19T13:57:26.091Z,97631.14
2019-03-19T14:00:13.990Z,97632.03
2019-03-19T14:02:42.682Z,97623.48
2019-03-19T14:05:51.115Z,97630.24
2019-03-19T14:08:39.008Z,97631.86
2019-03-19T14:11:07.574Z,97638.08
2019-03-19T14:13:55.870Z,97635.22
2019-03-19T14:16:25.711Z,97636.73
2019-03-19T14:19:13.519Z,97644.91
2019-03-19T14:22:01.282Z,97637.07
2019-03-19T14:24:49.150Z,97642.22
2019-03-19T14:27:37.036Z,97641.39
2019-03-19T14:30:45.520Z,97646.40
2019-03-19T14:33:33.410Z,97649.91
2019-03-19T14:36:21.254Z,97648.17
2019-03-19T14:39:09.122Z,97637.69
2019-03-19T14:41:37.758Z,97652.57
2019-03-19T14:44:06.466Z,97652.16
2019-03-19T14:46:54.295Z,97663.33
2019-03-19T14:49:46.993Z,97662.98
2019-03-19T14:55:19.474Z,97652.51
2019-03-19T14:57:50.669Z,97649.26
2019-03-19T15:00:58.306Z,97651.95
2019-03-19T15:03:46.209Z,97645.98
2019-03-19T15:06:34.094Z,97651.15
2019-03-19T15:09:02.750Z,97647.69
2019-03-19T15:11:50.709Z,97648.02
2019-03-19T15:14:38.551Z,97641.71
2019-03-19T15:17:26.429Z,97641.85
2019-03-19T15:20:14.204Z,97647.25
2019-03-19T15:22:42.906Z,97648.49
2019-03-19T15:27:45.404Z,97647.00
2019-03-19T15:30:53.839Z,97643.73
2019-03-19T15:33:41.781Z,97645.75
2019-03-19T15:36:29.630Z,97645.14
2019-03-19T15:39:17.438Z,97645.36
2019-03-19T15:42:05.353Z,97647.08
2019-03-19T15:44:53.237Z,97656.18
2019-03-19T15:47:41.095Z,97654.77
2019-03-19T15:50:49.552Z,97661.30
2019-03-19T15:53:37.433Z,97662.27
2019-03-19T15:56:25.350Z,97665.61
2019-03-19T15:59:13.141Z,97674.41
2019-03-19T16:07:33.872Z,97669.63
2019-03-19T16:10:21.728Z,97679.88
2019-03-19T16:13:09.579Z,97689.72
2019-03-19T16:15:57.396Z,97688.12
2019-03-19T16:18:45.362Z,97692.14
2019-03-19T16:21:14.055Z,97693.84
2019-03-19T16:24:01.887Z,97697.30
2019-03-19T16:26:49.840Z,97701.41
2019-03-19T16:29:37.711Z,97708.29
2019-03-19T16:32:25.492Z,97716.00
2019-03-19T16:35:13.425Z,97718.70
2019-03-19T16:38:01.204Z,97720.40
2019-03-19T16:40:49.083Z,97720.31
2019-03-19T16:43:17.754Z,97727.61
2019-03-19T16:46:05.634Z,97726.79
2019-03-19T16:48:53.539Z,97726.34
2019-03-19T16:51:41.481Z,97733.58
2019-03-19T16:54:29.292Z,97740.58
2019-03-19T16:57:17.226Z,97737.23
2019-03-19T17:00:05.027Z,97738.09
2019-03-19T17:05:47.336Z,97752.69
2019-03-19T17:11:09.345Z,97761.04
2019-03-19T17:14:18.082Z,97767.03
2019-03-19T17:17:07.871Z,97772.90
2019-03-19T17:23:02.720Z,97784.01
2019-03-19T17:25:50.594Z,97784.34
2019-03-19T17:28:38.440Z,97789.54
2019-03-19T17:31:07.091Z,97797.51
2019-03-19T17:33:54.962Z,97802.39
2019-03-19T17:36:42.756Z,97804.73
2019-03-19T17:39:30.605Z,97811.41
2019-03-19T17:42:18.483Z,97807.71
2019-03-19T17:44:47.189Z,97816.16
2019-03-19T17:47:35.160Z,97815.69
2019-03-19T17:50:43.621Z,97814.73
2019-03-19T17:53:31.440Z,97818.63
2019-03-19T17:56:19.233Z,97830.04
2019-03-19T17:59:07.179Z,97825.22
2019-03-19T18:01:55.076Z,97833.14
2019-03-19T18:04:23.778Z,97831.68
2019-03-19T18:07:11.733Z,97841.05
2019-03-19T18:09:40.415Z,97835.68
2019-03-19T18:12:28.252Z,97847.55
2019-03-19T18:15:16.040Z,97847.37
2019-03-19T18:20:39.286Z,97851.96
2019-03-19T18:23:47.793Z,97856.55
2019-03-19T18:26:35.508Z,97860.77
2019-03-19T18:29:23.400Z,97860.74
2019-03-19T18:37:33.913Z,97874.81
2019-03-19T18:40:02.905Z,97880.39
2019-03-19T18:42:50.957Z,97877.33
2019-03-19T18:45:39.092Z,97881.13
2019-03-19T18:48:27.330Z,97884.63
2019-03-19T18:54:04.732Z,97891.53
2019-03-19T18:56:52.678Z,97888.63
2019-03-19T18:59:40.603Z,97892.42
2019-03-19T19:05:35.613Z,97901.05
2019-03-19T19:08:23.617Z,97901.83
2019-03-19T19:11:11.835Z,97899.34
2019-03-19T19:14:00.281Z,97904.67
2019-03-19T19:16:48.411Z,97909.62
2019-03-19T19:19:38.004Z,97914.86
2019-03-19T19:22:27.464Z,97923.05
2019-03-19T19:25:16.213Z,97915.53
2019-03-19T19:28:04.348Z,97924.35
2019-03-19T19:30:52.531Z,97922.41
2019-03-19T19:41:43.876Z,97941.85
2019-03-19T19:44:26.436Z,97939.68
2019-03-19T19:47:15.132Z,97943.30
2019-03-19T19:50:03.191Z,97941.99
2019-03-19T19:52:51.178Z,97946.39
2019-03-19T19:58:34.656Z,97948.20
2019-03-19T20:01:03.531Z,97945.70
2019-03-19T20:06:31.422Z,97947.44
2019-03-19T20:09:40.098Z,97953.18
2019-03-19T20:15:35.209Z,97954.25
2019-03-19T20:18:23.446Z,97959.41
2019-03-19T20:21:11.674Z,97952.08
2019-03-19T20:23:59.827Z,97949.28
2019-03-19T20:26:28.722Z,97952.05
2019-03-19T20:29:16.956Z,97955.15
2019-03-19T20:35:04.299Z,97955.73
2019-03-19T20:40:40.177Z,97970.14
2019-03-19T20:43:28.318Z,97973.67
2019-03-19T20:46:16.366Z,97972.53
2019-03-19T20:49:04.693Z,97976.86
2019-03-19T20:51:52.849Z,97971.71
2019-03-19T20:54:40.982Z,97978.90
2019-03-19T20:57:29.227Z,97981.44
2019-03-19T21:00:17.566Z,97985.16
2019-03-19T21:03:05.427Z,97984.94
2019-03-19T21:05:53.363Z,97990.73
2019-03-19T21:08:41.242Z,97997.70
2019-03-19T21:11:10.047Z,97993.34
2019-03-19T21:13:57.987Z,98001.61
2019-03-19T21:16:45.860Z,98002.90
2019-03-19T21:19:33.727Z,98006.16
2019-03-19T21:22:21.638Z,98008.90
2019-03-19T21:25:09.900Z,98015.28
2019-03-19T21:31:04.652Z,98015.48
2019-03-19T21:33:33.294Z,98022.41
2019-03-19T21:36:21.393Z,98020.52
2019-03-19T21:39:09.365Z,98021.13
2019-03-19T21:41:57.335Z,98021.41
2019-03-19T21:44:45.313Z,98025.61
2019-03-19T21:47:53.792Z,98026.50
2019-03-19T21:51:02.270Z,98024.20
2019-03-19T21:53:50.170Z,98023.50
2019-03-19T21:56:38.041Z,98024.01
2019-03-19T21:59:26.035Z,98026.40
2019-03-19T22:01:54.768Z,98037.45
2019-03-19T22:04:42.624Z,98039.74
2019-03-19T22:10:05.326Z,98052.48
2019-03-19T22:12:54.704Z,98047.27
2019-03-19T22:15:42.655Z,98047.58
2019-03-19T22:18:30.609Z,98045.55
2019-03-19T22:21:18.558Z,98051.00
2019-03-19T22:24:06.428Z,98045.81
2019-03-19T22:26:54.320Z,98056.78
2019-03-19T22:29:22.958Z,98053.95
2019-03-19T22:32:10.786Z,98053.76
2019-03-19T22:34:58.489Z,98057.13
2019-03-19T22:37:46.403Z,98053.95
2019-03-19T22:40:54.867Z,98054.75
2019-03-19T22:43:25.844Z,98054.91
2019-03-19T22:46:33.662Z,98057.94
2019-03-19T22:49:21.620Z,98062.66
2019-03-19T22:52:09.568Z,98065.50
2019-03-19T22:54:57.371Z,98066.27
2019-03-19T22:57:45.273Z,98065.93
2019-03-19T23:00:52.425Z,98070.26
2019-03-19T23:03:40.285Z,98077.61
2019-03-19T23:06:28.149Z,98084.09
2019-03-19T23:09:16.081Z,98072.87
2019-03-19T23:12:04.138Z,98073.67
2019-03-19T23:14:51.987Z,98079.56
2019-03-19T23:17:39.937Z,98082.91
2019-03-19T23:20:48.432Z,98080.37
2019-03-19T23:23:17.130Z,98082.92
2019-03-19T23:26:05.059Z,98088.09
2019-03-19T23:31:28.634Z,98084.89
2019-03-19T23:33:57.323Z,98086.98
2019-03-19T23:36:45.085Z,98084.61
2019-03-19T23:39:33.044Z,98090.48
2019-03-19T23:42:20.946Z,98097.02
2019-03-19T23:48:03.744Z,98087.68
2019-03-19T23:53:32.301Z,98087.07
2019-03-19T23:56:20.113Z,98089.13
2019-03-19T23:59:08.010Z,98085.28
